sensor_id;sensor_type;location;lat;lon;timestamp;P1;durP1;ratioP1;P2;durP2;ratioP2
68927;SDS011;56126;54.086;18.796;2024-02-23T00:00:06;27.30;;;11.30;;
68927;SDS011;56126;54.086;18.796;2024-02-23T00:03:17;29.40;;;10.80;;
68927;SDS011;56126;54.086;18.796;2024-02-23T00:06:05;29.20;;;11.00;;
68927;SDS011;56126;54.086;18.796;2024-02-23T00:08:52;25.60;;;9.90;;
68927;SDS011;56126;54.086;18.796;2024-02-23T00:11:41;27.90;;;10.40;;
68927;SDS011;56126;54.086;18.796;2024-02-23T00:14:31;25.20;;;10.20;;
68927;SDS011;56126;54.086;18.796;2024-02-23T00:17:19;25.30;;;10.00;;
68927;SDS011;56126;54.086;18.796;2024-02-23T00:20:08;25.50;;;9.30;;
68927;SDS011;56126;54.086;18.796;2024-02-23T00:22:58;25.00;;;9.90;;
68927;SDS011;56126;54.086;18.796;2024-02-23T00:25:46;22.20;;;9.30;;
68927;SDS011;56126;54.086;18.796;2024-02-23T00:28:33;24.60;;;9.90;;
68927;SDS011;56126;54.086;18.796;2024-02-23T00:31:20;23.60;;;9.60;;
68927;SDS011;56126;54.086;18.796;2024-02-23T00:34:09;20.40;;;8.70;;
68927;SDS011;56126;54.086;18.796;2024-02-23T00:36:57;21.90;;;9.60;;
68927;SDS011;56126;54.086;18.796;2024-02-23T00:39:44;23.20;;;9.80;;
68927;SDS011;56126;54.086;18.796;2024-02-23T00:42:31;24.10;;;9.10;;
68927;SDS011;56126;54.086;18.796;2024-02-23T00:45:18;22.60;;;8.60;;
68927;SDS011;56126;54.086;18.796;2024-02-23T00:48:06;20.30;;;8.30;;
68927;SDS011;56126;54.086;18.796;2024-02-23T00:50:53;21.10;;;8.60;;
68927;SDS011;56126;54.086;18.796;2024-02-23T00:53:41;20.00;;;9.10;;
68927;SDS011;56126;54.086;18.796;2024-02-23T00:56:28;22.00;;;9.20;;
68927;SDS011;56126;54.086;18.796;2024-02-23T00:59:30;21.60;;;8.80;;
68927;SDS011;56126;54.086;18.796;2024-02-23T01:02:17;21.40;;;8.60;;
68927;SDS011;56126;54.086;18.796;2024-02-23T01:05:04;19.10;;;7.80;;
68927;SDS011;56126;54.086;18.796;2024-02-23T01:07:53;19.80;;;8.10;;
68927;SDS011;56126;54.086;18.796;2024-02-23T01:10:40;19.50;;;8.60;;
68927;SDS011;56126;54.086;18.796;2024-02-23T01:13:27;18.20;;;8.20;;
68927;SDS011;56126;54.086;18.796;2024-02-23T01:16:16;21.50;;;8.70;;
68927;SDS011;56126;54.086;18.796;2024-02-23T01:19:03;20.10;;;8.30;;
68927;SDS011;56126;54.086;18.796;2024-02-23T01:21:51;17.90;;;7.50;;
68927;SDS011;56126;54.086;18.796;2024-02-23T01:24:46;18.40;;;7.90;;
68927;SDS011;56126;54.086;18.796;2024-02-23T01:27:33;19.90;;;8.10;;
68927;SDS011;56126;54.086;18.796;2024-02-23T01:30:20;17.50;;;8.00;;
68927;SDS011;56126;54.086;18.796;2024-02-23T01:33:07;20.80;;;8.20;;
68927;SDS011;56126;54.086;18.796;2024-02-23T01:35:55;16.70;;;7.60;;
68927;SDS011;56126;54.086;18.796;2024-02-23T01:38:44;19.30;;;7.40;;
68927;SDS011;56126;54.086;18.796;2024-02-23T01:41:31;16.10;;;7.60;;
68927;SDS011;56126;54.086;18.796;2024-02-23T01:44:19;18.80;;;7.10;;
68927;SDS011;56126;54.086;18.796;2024-02-23T01:47:08;17.00;;;7.30;;
68927;SDS011;56126;54.086;18.796;2024-02-23T01:49:55;17.80;;;7.20;;
68927;SDS011;56126;54.086;18.796;2024-02-23T01:52:45;15.80;;;7.00;;
68927;SDS011;56126;54.086;18.796;2024-02-23T01:55:32;17.20;;;7.50;;
68927;SDS011;56126;54.086;18.796;2024-02-23T01:58:24;17.60;;;7.30;;
68927;SDS011;56126;54.086;18.796;2024-02-23T02:01:11;15.80;;;6.70;;
68927;SDS011;56126;54.086;18.796;2024-02-23T02:03:58;15.30;;;7.30;;
68927;SDS011;56126;54.086;18.796;2024-02-23T02:06:46;17.50;;;7.50;;
68927;SDS011;56126;54.086;18.796;2024-02-23T02:09:35;16.90;;;6.60;;
68927;SDS011;56126;54.086;18.796;2024-02-23T02:12:28;14.90;;;6.80;;
68927;SDS011;56126;54.086;18.796;2024-02-23T02:15:15;15.50;;;6.50;;
68927;SDS011;56126;54.086;18.796;2024-02-23T02:18:02;15.70;;;6.40;;
68927;SDS011;56126;54.086;18.796;2024-02-23T02:20:58;16.10;;;6.60;;
68927;SDS011;56126;54.086;18.796;2024-02-23T02:23:46;14.50;;;6.90;;
68927;SDS011;56126;54.086;18.796;2024-02-23T02:26:34;14.00;;;6.30;;
68927;SDS011;56126;54.086;18.796;2024-02-23T02:29:23;12.80;;;6.50;;
68927;SDS011;56126;54.086;18.796;2024-02-23T02:32:11;15.20;;;6.50;;
68927;SDS011;56126;54.086;18.796;2024-02-23T02:34:58;13.40;;;6.80;;
68927;SDS011;56126;54.086;18.796;2024-02-23T02:37:45;14.90;;;6.40;;
68927;SDS011;56126;54.086;18.796;2024-02-23T02:40:32;13.10;;;6.00;;
68927;SDS011;56126;54.086;18.796;2024-02-23T02:43:19;14.60;;;5.90;;
68927;SDS011;56126;54.086;18.796;2024-02-23T02:46:07;13.60;;;6.40;;
68927;SDS011;56126;54.086;18.796;2024-02-23T02:48:54;13.60;;;6.40;;
68927;SDS011;56126;54.086;18.796;2024-02-23T02:51:41;12.40;;;6.10;;
68927;SDS011;56126;54.086;18.796;2024-02-23T02:54:28;14.20;;;5.90;;
68927;SDS011;56126;54.086;18.796;2024-02-23T02:57:15;12.10;;;5.40;;
68927;SDS011;56126;54.086;18.796;2024-02-23T03:00:03;13.40;;;6.10;;
68927;SDS011;56126;54.086;18.796;2024-02-23T03:02:55;13.40;;;6.00;;
68927;SDS011;56126;54.086;18.796;2024-02-23T03:05:43;12.90;;;6.00;;
68927;SDS011;56126;54.086;18.796;2024-02-23T03:08:30;12.10;;;5.70;;
68927;SDS011;56126;54.086;18.796;2024-02-23T03:11:17;12.70;;;5.90;;
68927;SDS011;56126;54.086;18.796;2024-02-23T03:14:04;12.20;;;5.50;;
68927;SDS011;56126;54.086;18.796;2024-02-23T03:16:51;14.70;;;6.20;;
68927;SDS011;56126;54.086;18.796;2024-02-23T03:19:38;11.20;;;5.80;;
68927;SDS011;56126;54.086;18.796;2024-02-23T03:22:28;13.80;;;5.60;;
68927;SDS011;56126;54.086;18.796;2024-02-23T03:25:15;11.40;;;5.70;;
68927;SDS011;56126;54.086;18.796;2024-02-23T03:28:02;11.30;;;5.30;;
68927;SDS011;56126;54.086;18.796;2024-02-23T03:30:49;12.40;;;5.60;;
68927;SDS011;56126;54.086;18.796;2024-02-23T03:33:36;12.70;;;5.50;;
68927;SDS011;56126;54.086;18.796;2024-02-23T03:36:25;12.50;;;5.40;;
68927;SDS011;56126;54.086;18.796;2024-02-23T03:39:12;11.00;;;5.00;;
68927;SDS011;56126;54.086;18.796;2024-02-23T03:41:59;13.60;;;5.70;;
68927;SDS011;56126;54.086;18.796;2024-02-23T03:44:46;13.10;;;5.90;;
68927;SDS011;56126;54.086;18.796;2024-02-23T03:47:33;11.40;;;5.50;;
68927;SDS011;56126;54.086;18.796;2024-02-23T03:50:20;11.30;;;5.20;;
68927;SDS011;56126;54.086;18.796;2024-02-23T03:53:07;11.00;;;5.10;;
68927;SDS011;56126;54.086;18.796;2024-02-23T03:55:54;13.20;;;5.40;;
68927;SDS011;56126;54.086;18.796;2024-02-23T03:58:41;11.10;;;5.30;;
68927;SDS011;56126;54.086;18.796;2024-02-23T04:01:28;11.10;;;5.50;;
68927;SDS011;56126;54.086;18.796;2024-02-23T04:04:16;10.70;;;4.80;;
68927;SDS011;56126;54.086;18.796;2024-02-23T04:07:05;11.60;;;4.90;;
68927;SDS011;56126;54.086;18.796;2024-02-23T04:09:52;12.10;;;4.90;;
68927;SDS011;56126;54.086;18.796;2024-02-23T04:12:42;10.90;;;5.30;;
68927;SDS011;56126;54.086;18.796;2024-02-23T04:15:33;11.10;;;4.90;;
68927;SDS011;56126;54.086;18.796;2024-02-23T04:18:20;10.60;;;5.40;;
68927;SDS011;56126;54.086;18.796;2024-02-23T04:21:07;12.00;;;5.00;;
68927;SDS011;56126;54.086;18.796;2024-02-23T04:23:54;11.50;;;4.80;;
68927;SDS011;56126;54.086;18.796;2024-02-23T04:26:41;10.00;;;5.10;;
68927;SDS011;56126;54.086;18.796;2024-02-23T04:29:28;11.00;;;4.70;;
68927;SDS011;56126;54.086;18.796;2024-02-23T04:32:15;10.80;;;5.00;;
68927;SDS011;56126;54.086;18.796;2024-02-23T04:35:02;11.90;;;5.50;;
68927;SDS011;56126;54.086;18.796;2024-02-23T04:37:49;11.00;;;4.70;;
68927;SDS011;56126;54.086;18.796;2024-02-23T04:40:39;10.40;;;5.20;;
68927;SDS011;56126;54.086;18.796;2024-02-23T04:43:26;10.90;;;5.00;;
68927;SDS011;56126;54.086;18.796;2024-02-23T04:46:13;10.60;;;5.10;;
68927;SDS011;56126;54.086;18.796;2024-02-23T04:49:00;9.10;;;4.40;;
68927;SDS011;56126;54.086;18.796;2024-02-23T04:51:48;10.00;;;4.90;;
68927;SDS011;56126;54.086;18.796;2024-02-23T04:54:35;9.90;;;4.30;;
68927;SDS011;56126;54.086;18.796;2024-02-23T04:57:22;10.10;;;4.60;;
68927;SDS011;56126;54.086;18.796;2024-02-23T05:00:09;9.50;;;4.60;;
68927;SDS011;56126;54.086;18.796;2024-02-23T05:03:01;10.30;;;5.00;;
68927;SDS011;56126;54.086;18.796;2024-02-23T05:05:52;10.40;;;4.70;;
68927;SDS011;56126;54.086;18.796;2024-02-23T05:08:41;9.80;;;4.90;;
68927;SDS011;56126;54.086;18.796;2024-02-23T05:11:28;9.50;;;4.30;;
68927;SDS011;56126;54.086;18.796;2024-02-23T05:14:15;10.90;;;4.50;;
68927;SDS011;56126;54.086;18.796;2024-02-23T05:17:02;9.70;;;4.70;;
68927;SDS011;56126;54.086;18.796;2024-02-23T05:19:50;10.50;;;4.70;;
68927;SDS011;56126;54.086;18.796;2024-02-23T05:22:40;8.40;;;4.20;;
68927;SDS011;56126;54.086;18.796;2024-02-23T05:25:27;9.60;;;4.90;;
68927;SDS011;56126;54.086;18.796;2024-02-23T05:28:16;8.70;;;4.50;;
68927;SDS011;56126;54.086;18.796;2024-02-23T05:31:03;9.60;;;4.40;;
68927;SDS011;56126;54.086;18.796;2024-02-23T05:33:52;10.40;;;4.50;;
68927;SDS011;56126;54.086;18.796;2024-02-23T05:36:39;9.60;;;4.70;;
68927;SDS011;56126;54.086;18.796;2024-02-23T05:39:26;9.60;;;4.50;;
68927;SDS011;56126;54.086;18.796;2024-02-23T05:42:13;10.80;;;4.50;;
68927;SDS011;56126;54.086;18.796;2024-02-23T05:45:00;15.10;;;5.00;;
68927;SDS011;56126;54.086;18.796;2024-02-23T05:47:47;10.00;;;4.20;;
68927;SDS011;56126;54.086;18.796;2024-02-23T05:50:35;10.10;;;4.10;;
68927;SDS011;56126;54.086;18.796;2024-02-23T05:53:22;10.70;;;4.50;;
68927;SDS011;56126;54.086;18.796;2024-02-23T05:56:09;9.90;;;4.40;;
68927;SDS011;56126;54.086;18.796;2024-02-23T05:58:56;9.00;;;4.40;;
68927;SDS011;56126;54.086;18.796;2024-02-23T06:01:43;9.80;;;4.30;;
68927;SDS011;56126;54.086;18.796;2024-02-23T06:04:30;9.50;;;3.90;;
68927;SDS011;56126;54.086;18.796;2024-02-23T06:07:17;14.10;;;5.10;;
68927;SDS011;56126;54.086;18.796;2024-02-23T06:10:04;20.00;;;6.10;;
68927;SDS011;56126;54.086;18.796;2024-02-23T06:12:52;15.90;;;5.40;;
68927;SDS011;56126;54.086;18.796;2024-02-23T06:15:42;21.60;;;6.80;;
68927;SDS011;56126;54.086;18.796;2024-02-23T06:18:30;123.20;;;27.60;;
68927;SDS011;56126;54.086;18.796;2024-02-23T06:21:17;115.10;;;24.60;;
68927;SDS011;56126;54.086;18.796;2024-02-23T06:24:04;108.50;;;23.90;;
68927;SDS011;56126;54.086;18.796;2024-02-23T06:26:51;102.70;;;24.80;;
68927;SDS011;56126;54.086;18.796;2024-02-23T06:29:38;82.40;;;19.80;;
68927;SDS011;56126;54.086;18.796;2024-02-23T06:32:26;84.20;;;20.70;;
68927;SDS011;56126;54.086;18.796;2024-02-23T06:35:14;79.20;;;20.70;;
68927;SDS011;56126;54.086;18.796;2024-02-23T06:38:01;73.80;;;19.00;;
68927;SDS011;56126;54.086;18.796;2024-02-23T06:40:53;71.40;;;16.50;;
68927;SDS011;56126;54.086;18.796;2024-02-23T06:43:41;74.10;;;20.00;;
68927;SDS011;56126;54.086;18.796;2024-02-23T06:46:28;82.00;;;21.00;;
68927;SDS011;56126;54.086;18.796;2024-02-23T06:49:15;76.10;;;19.50;;
68927;SDS011;56126;54.086;18.796;2024-02-23T06:52:02;81.40;;;19.90;;
68927;SDS011;56126;54.086;18.796;2024-02-23T06:54:50;68.50;;;17.70;;
68927;SDS011;56126;54.086;18.796;2024-02-23T06:57:37;72.90;;;18.40;;
68927;SDS011;56126;54.086;18.796;2024-02-23T07:00:24;67.80;;;18.20;;
68927;SDS011;56126;54.086;18.796;2024-02-23T07:03:11;63.10;;;17.40;;
68927;SDS011;56126;54.086;18.796;2024-02-23T07:05:59;64.40;;;17.30;;
68927;SDS011;56126;54.086;18.796;2024-02-23T07:08:46;62.60;;;16.60;;
68927;SDS011;56126;54.086;18.796;2024-02-23T07:11:33;57.10;;;16.10;;
68927;SDS011;56126;54.086;18.796;2024-02-23T07:14:20;55.70;;;15.50;;
68927;SDS011;56126;54.086;18.796;2024-02-23T07:17:08;55.30;;;15.50;;
68927;SDS011;56126;54.086;18.796;2024-02-23T07:19:55;58.60;;;15.90;;
68927;SDS011;56126;54.086;18.796;2024-02-23T07:22:52;49.20;;;15.40;;
68927;SDS011;56126;54.086;18.796;2024-02-23T07:25:39;54.40;;;14.10;;
68927;SDS011;56126;54.086;18.796;2024-02-23T07:28:27;53.50;;;15.50;;
68927;SDS011;56126;54.086;18.796;2024-02-23T07:31:14;48.90;;;14.80;;
68927;SDS011;56126;54.086;18.796;2024-02-23T07:34:01;48.40;;;13.30;;
68927;SDS011;56126;54.086;18.796;2024-02-23T07:36:52;55.00;;;14.00;;
68927;SDS011;56126;54.086;18.796;2024-02-23T07:39:39;49.20;;;13.30;;
68927;SDS011;56126;54.086;18.796;2024-02-23T07:42:26;47.00;;;13.00;;
68927;SDS011;56126;54.086;18.796;2024-02-23T07:45:14;42.20;;;12.90;;
68927;SDS011;56126;54.086;18.796;2024-02-23T07:48:01;46.40;;;14.00;;
68927;SDS011;56126;54.086;18.796;2024-02-23T07:50:49;44.90;;;13.60;;
68927;SDS011;56126;54.086;18.796;2024-02-23T07:53:36;42.60;;;12.90;;
68927;SDS011;56126;54.086;18.796;2024-02-23T07:56:23;38.60;;;12.10;;
68927;SDS011;56126;54.086;18.796;2024-02-23T07:59:10;43.40;;;12.80;;
68927;SDS011;56126;54.086;18.796;2024-02-23T08:01:57;38.50;;;12.00;;
68927;SDS011;56126;54.086;18.796;2024-02-23T08:04:45;39.70;;;13.10;;
68927;SDS011;56126;54.086;18.796;2024-02-23T08:07:34;39.40;;;11.20;;
68927;SDS011;56126;54.086;18.796;2024-02-23T08:10:22;35.60;;;11.20;;
68927;SDS011;56126;54.086;18.796;2024-02-23T08:13:11;36.90;;;10.90;;
68927;SDS011;56126;54.086;18.796;2024-02-23T08:15:59;34.70;;;10.80;;
68927;SDS011;56126;54.086;18.796;2024-02-23T08:18:46;35.00;;;11.70;;
68927;SDS011;56126;54.086;18.796;2024-02-23T08:21:33;35.10;;;11.40;;
68927;SDS011;56126;54.086;18.796;2024-02-23T08:24:20;35.50;;;10.30;;
68927;SDS011;56126;54.086;18.796;2024-02-23T08:27:07;33.10;;;10.50;;
68927;SDS011;56126;54.086;18.796;2024-02-23T08:29:54;36.40;;;10.70;;
68927;SDS011;56126;54.086;18.796;2024-02-23T08:32:41;33.10;;;10.60;;
68927;SDS011;56126;54.086;18.796;2024-02-23T08:35:29;31.10;;;10.30;;
68927;SDS011;56126;54.086;18.796;2024-02-23T08:38:16;31.30;;;10.00;;
68927;SDS011;56126;54.086;18.796;2024-02-23T08:41:05;31.10;;;10.20;;
68927;SDS011;56126;54.086;18.796;2024-02-23T08:43:52;29.40;;;10.80;;
68927;SDS011;56126;54.086;18.796;2024-02-23T08:46:41;30.80;;;9.70;;
68927;SDS011;56126;54.086;18.796;2024-02-23T08:49:29;30.20;;;9.40;;
68927;SDS011;56126;54.086;18.796;2024-02-23T08:52:16;28.10;;;9.70;;
68927;SDS011;56126;54.086;18.796;2024-02-23T08:55:03;28.80;;;9.90;;
68927;SDS011;56126;54.086;18.796;2024-02-23T08:57:50;26.40;;;9.00;;
68927;SDS011;56126;54.086;18.796;2024-02-23T09:00:37;27.20;;;8.30;;
68927;SDS011;56126;54.086;18.796;2024-02-23T09:03:24;26.50;;;8.90;;
68927;SDS011;56126;54.086;18.796;2024-02-23T09:06:11;28.50;;;8.50;;
68927;SDS011;56126;54.086;18.796;2024-02-23T09:08:59;21.50;;;8.40;;
68927;SDS011;56126;54.086;18.796;2024-02-23T09:11:46;24.00;;;8.70;;
68927;SDS011;56126;54.086;18.796;2024-02-23T09:14:33;26.70;;;8.70;;
68927;SDS011;56126;54.086;18.796;2024-02-23T09:17:24;22.90;;;8.10;;
68927;SDS011;56126;54.086;18.796;2024-02-23T09:20:12;22.60;;;7.60;;
68927;SDS011;56126;54.086;18.796;2024-02-23T09:23:01;25.10;;;8.40;;
68927;SDS011;56126;54.086;18.796;2024-02-23T09:25:50;23.20;;;8.20;;
68927;SDS011;56126;54.086;18.796;2024-02-23T09:28:37;26.20;;;7.50;;
68927;SDS011;56126;54.086;18.796;2024-02-23T09:31:27;22.10;;;8.10;;
68927;SDS011;56126;54.086;18.796;2024-02-23T09:34:18;23.00;;;8.00;;
68927;SDS011;56126;54.086;18.796;2024-02-23T09:37:06;24.00;;;7.70;;
68927;SDS011;56126;54.086;18.796;2024-02-23T09:39:53;25.30;;;8.80;;
68927;SDS011;56126;54.086;18.796;2024-02-23T09:42:40;22.10;;;7.50;;
68927;SDS011;56126;54.086;18.796;2024-02-23T09:45:29;21.50;;;7.50;;
68927;SDS011;56126;54.086;18.796;2024-02-23T09:48:18;22.50;;;7.70;;
68927;SDS011;56126;54.086;18.796;2024-02-23T09:51:06;23.60;;;7.90;;
68927;SDS011;56126;54.086;18.796;2024-02-23T09:53:54;20.70;;;7.10;;
68927;SDS011;56126;54.086;18.796;2024-02-23T09:56:41;21.10;;;7.60;;
68927;SDS011;56126;54.086;18.796;2024-02-23T09:59:30;21.90;;;7.20;;
68927;SDS011;56126;54.086;18.796;2024-02-23T10:02:20;20.80;;;6.70;;
68927;SDS011;56126;54.086;18.796;2024-02-23T10:05:12;21.40;;;7.20;;
68927;SDS011;56126;54.086;18.796;2024-02-23T10:08:01;19.90;;;6.90;;
68927;SDS011;56126;54.086;18.796;2024-02-23T10:10:50;18.00;;;6.40;;
68927;SDS011;56126;54.086;18.796;2024-02-23T10:13:38;17.90;;;7.10;;
68927;SDS011;56126;54.086;18.796;2024-02-23T10:16:25;18.40;;;6.30;;
68927;SDS011;56126;54.086;18.796;2024-02-23T10:19:12;19.90;;;7.70;;
68927;SDS011;56126;54.086;18.796;2024-02-23T10:21:59;19.30;;;6.60;;
68927;SDS011;56126;54.086;18.796;2024-02-23T10:24:47;19.80;;;6.40;;
68927;SDS011;56126;54.086;18.796;2024-02-23T10:27:34;19.30;;;6.50;;
68927;SDS011;56126;54.086;18.796;2024-02-23T10:30:21;17.00;;;6.20;;
68927;SDS011;56126;54.086;18.796;2024-02-23T10:33:08;19.10;;;6.50;;
68927;SDS011;56126;54.086;18.796;2024-02-23T10:35:58;19.20;;;6.10;;
68927;SDS011;56126;54.086;18.796;2024-02-23T10:38:47;18.20;;;6.00;;
68927;SDS011;56126;54.086;18.796;2024-02-23T10:41:38;17.30;;;6.00;;
68927;SDS011;56126;54.086;18.796;2024-02-23T10:44:29;15.60;;;5.80;;
68927;SDS011;56126;54.086;18.796;2024-02-23T10:47:19;18.10;;;6.10;;
68927;SDS011;56126;54.086;18.796;2024-02-23T10:50:08;15.90;;;5.50;;
68927;SDS011;56126;54.086;18.796;2024-02-23T10:52:57;17.20;;;5.60;;
68927;SDS011;56126;54.086;18.796;2024-02-23T10:55:45;14.90;;;5.70;;
68927;SDS011;56126;54.086;18.796;2024-02-23T10:58:33;17.60;;;5.60;;
68927;SDS011;56126;54.086;18.796;2024-02-23T11:01:20;16.40;;;5.80;;
68927;SDS011;56126;54.086;18.796;2024-02-23T11:04:09;16.40;;;5.70;;
68927;SDS011;56126;54.086;18.796;2024-02-23T11:06:57;14.40;;;5.40;;
68927;SDS011;56126;54.086;18.796;2024-02-23T11:09:52;14.90;;;5.40;;
68927;SDS011;56126;54.086;18.796;2024-02-23T11:12:40;15.90;;;6.00;;
68927;SDS011;56126;54.086;18.796;2024-02-23T11:15:27;15.80;;;5.20;;
68927;SDS011;56126;54.086;18.796;2024-02-23T11:18:49;16.10;;;5.90;;
68927;SDS011;56126;54.086;18.796;2024-02-23T11:21:33;17.30;;;5.20;;
68927;SDS011;56126;54.086;18.796;2024-02-23T11:24:25;13.60;;;6.10;;
68927;SDS011;56126;54.086;18.796;2024-02-23T11:27:15;12.90;;;5.10;;
68927;SDS011;56126;54.086;18.796;2024-02-23T11:30:06;14.90;;;5.40;;
68927;SDS011;56126;54.086;18.796;2024-02-23T11:32:59;14.90;;;5.20;;
68927;SDS011;56126;54.086;18.796;2024-02-23T11:35:46;14.50;;;5.30;;
68927;SDS011;56126;54.086;18.796;2024-02-23T11:38:36;14.10;;;5.20;;
68927;SDS011;56126;54.086;18.796;2024-02-23T11:41:28;15.60;;;5.60;;
68927;SDS011;56126;54.086;18.796;2024-02-23T11:44:21;14.10;;;5.00;;
68927;SDS011;56126;54.086;18.796;2024-02-23T11:47:10;13.10;;;4.60;;
68927;SDS011;56126;54.086;18.796;2024-02-23T11:49:57;13.30;;;4.60;;
68927;SDS011;56126;54.086;18.796;2024-02-23T11:52:44;14.00;;;4.80;;
68927;SDS011;56126;54.086;18.796;2024-02-23T11:55:31;15.90;;;4.70;;
68927;SDS011;56126;54.086;18.796;2024-02-23T11:58:18;12.60;;;4.90;;
68927;SDS011;56126;54.086;18.796;2024-02-23T12:01:05;13.70;;;4.70;;
68927;SDS011;56126;54.086;18.796;2024-02-23T12:03:53;12.70;;;4.60;;
68927;SDS011;56126;54.086;18.796;2024-02-23T12:06:42;13.20;;;4.70;;
68927;SDS011;56126;54.086;18.796;2024-02-23T12:09:29;14.60;;;4.90;;
68927;SDS011;56126;54.086;18.796;2024-02-23T12:12:17;13.40;;;4.50;;
68927;SDS011;56126;54.086;18.796;2024-02-23T12:15:05;13.40;;;4.50;;
68927;SDS011;56126;54.086;18.796;2024-02-23T12:17:53;12.20;;;4.30;;
68927;SDS011;56126;54.086;18.796;2024-02-23T12:20:41;11.20;;;4.30;;
68927;SDS011;56126;54.086;18.796;2024-02-23T12:26:27;11.80;;;4.00;;
68927;SDS011;56126;54.086;18.796;2024-02-23T12:29:14;11.90;;;4.30;;
68927;SDS011;56126;54.086;18.796;2024-02-23T12:32:03;13.30;;;4.70;;
68927;SDS011;56126;54.086;18.796;2024-02-23T12:34:52;13.80;;;5.30;;
68927;SDS011;56126;54.086;18.796;2024-02-23T12:37:39;12.40;;;3.90;;
68927;SDS011;56126;54.086;18.796;2024-02-23T12:40:30;11.70;;;4.40;;
68927;SDS011;56126;54.086;18.796;2024-02-23T12:43:18;13.40;;;4.70;;
68927;SDS011;56126;54.086;18.796;2024-02-23T12:46:08;11.30;;;4.10;;
68927;SDS011;56126;54.086;18.796;2024-02-23T12:48:55;12.00;;;4.20;;
68927;SDS011;56126;54.086;18.796;2024-02-23T12:51:42;11.00;;;4.30;;
68927;SDS011;56126;54.086;18.796;2024-02-23T12:54:30;11.40;;;4.10;;
68927;SDS011;56126;54.086;18.796;2024-02-23T12:57:17;10.80;;;4.00;;
68927;SDS011;56126;54.086;18.796;2024-02-23T13:00:04;11.60;;;4.30;;
68927;SDS011;56126;54.086;18.796;2024-02-23T13:02:52;11.60;;;3.70;;
68927;SDS011;56126;54.086;18.796;2024-02-23T13:05:41;11.90;;;4.00;;
68927;SDS011;56126;54.086;18.796;2024-02-23T13:08:29;12.70;;;3.70;;
68927;SDS011;56126;54.086;18.796;2024-02-23T13:11:17;11.00;;;3.80;;
68927;SDS011;56126;54.086;18.796;2024-02-23T13:14:04;10.00;;;3.80;;
68927;SDS011;56126;54.086;18.796;2024-02-23T13:16:51;10.60;;;3.50;;
68927;SDS011;56126;54.086;18.796;2024-02-23T13:19:38;8.70;;;3.50;;
68927;SDS011;56126;54.086;18.796;2024-02-23T13:22:25;9.90;;;3.70;;
68927;SDS011;56126;54.086;18.796;2024-02-23T13:25:12;10.10;;;3.80;;
68927;SDS011;56126;54.086;18.796;2024-02-23T13:27:59;10.20;;;3.80;;
68927;SDS011;56126;54.086;18.796;2024-02-23T13:30:47;10.00;;;3.30;;
68927;SDS011;56126;54.086;18.796;2024-02-23T13:33:34;9.90;;;3.40;;
68927;SDS011;56126;54.086;18.796;2024-02-23T13:36:21;10.70;;;3.70;;
68927;SDS011;56126;54.086;18.796;2024-02-23T13:39:08;9.10;;;3.10;;
68927;SDS011;56126;54.086;18.796;2024-02-23T13:41:56;8.10;;;2.80;;
68927;SDS011;56126;54.086;18.796;2024-02-23T13:44:43;8.10;;;2.80;;
68927;SDS011;56126;54.086;18.796;2024-02-23T13:47:30;7.10;;;3.10;;
68927;SDS011;56126;54.086;18.796;2024-02-23T13:50:18;7.10;;;2.40;;
68927;SDS011;56126;54.086;18.796;2024-02-23T13:53:05;8.50;;;2.60;;
68927;SDS011;56126;54.086;18.796;2024-02-23T13:55:52;8.10;;;2.90;;
68927;SDS011;56126;54.086;18.796;2024-02-23T13:58:39;7.40;;;2.80;;
68927;SDS011;56126;54.086;18.796;2024-02-23T14:01:26;7.40;;;2.80;;
68927;SDS011;56126;54.086;18.796;2024-02-23T14:04:14;6.90;;;2.40;;
68927;SDS011;56126;54.086;18.796;2024-02-23T14:07:01;7.90;;;2.40;;
68927;SDS011;56126;54.086;18.796;2024-02-23T14:09:50;8.20;;;2.40;;
68927;SDS011;56126;54.086;18.796;2024-02-23T14:12:38;8.00;;;2.40;;
68927;SDS011;56126;54.086;18.796;2024-02-23T14:15:25;8.40;;;2.40;;
68927;SDS011;56126;54.086;18.796;2024-02-23T14:18:14;7.50;;;2.30;;
68927;SDS011;56126;54.086;18.796;2024-02-23T14:21:03;6.60;;;2.10;;
68927;SDS011;56126;54.086;18.796;2024-02-23T14:23:53;7.30;;;2.30;;
68927;SDS011;56126;54.086;18.796;2024-02-23T14:26:40;7.50;;;2.20;;
68927;SDS011;56126;54.086;18.796;2024-02-23T14:29:27;7.20;;;2.20;;
68927;SDS011;56126;54.086;18.796;2024-02-23T14:32:18;6.70;;;2.00;;
68927;SDS011;56126;54.086;18.796;2024-02-23T14:35:06;7.10;;;2.20;;
68927;SDS011;56126;54.086;18.796;2024-02-23T14:37:54;11.90;;;2.30;;
68927;SDS011;56126;54.086;18.796;2024-02-23T14:40:42;7.00;;;1.90;;
68927;SDS011;56126;54.086;18.796;2024-02-23T14:43:29;9.70;;;2.60;;
68927;SDS011;56126;54.086;18.796;2024-02-23T14:46:18;9.10;;;2.40;;
68927;SDS011;56126;54.086;18.796;2024-02-23T14:49:06;8.10;;;2.10;;
68927;SDS011;56126;54.086;18.796;2024-02-23T14:51:53;8.80;;;2.80;;
68927;SDS011;56126;54.086;18.796;2024-02-23T14:54:41;8.60;;;2.30;;
68927;SDS011;56126;54.086;18.796;2024-02-23T14:57:28;8.00;;;2.60;;
68927;SDS011;56126;54.086;18.796;2024-02-23T15:00:16;9.80;;;3.00;;
68927;SDS011;56126;54.086;18.796;2024-02-23T15:03:03;9.30;;;3.40;;
68927;SDS011;56126;54.086;18.796;2024-02-23T15:05:53;9.50;;;3.00;;
68927;SDS011;56126;54.086;18.796;2024-02-23T15:08:40;8.70;;;2.80;;
68927;SDS011;56126;54.086;18.796;2024-02-23T15:11:27;8.60;;;3.10;;
68927;SDS011;56126;54.086;18.796;2024-02-23T15:14:16;8.00;;;2.60;;
68927;SDS011;56126;54.086;18.796;2024-02-23T15:17:03;8.90;;;2.80;;
68927;SDS011;56126;54.086;18.796;2024-02-23T15:19:51;8.00;;;2.90;;
68927;SDS011;56126;54.086;18.796;2024-02-23T15:22:38;7.70;;;2.70;;
68927;SDS011;56126;54.086;18.796;2024-02-23T15:25:29;7.50;;;2.80;;
68927;SDS011;56126;54.086;18.796;2024-02-23T15:28:16;8.50;;;3.00;;
68927;SDS011;56126;54.086;18.796;2024-02-23T15:31:09;7.60;;;3.20;;
68927;SDS011;56126;54.086;18.796;2024-02-23T15:33:58;9.20;;;3.20;;
68927;SDS011;56126;54.086;18.796;2024-02-23T15:36:46;7.20;;;2.90;;
68927;SDS011;56126;54.086;18.796;2024-02-23T15:39:35;9.50;;;3.10;;
68927;SDS011;56126;54.086;18.796;2024-02-23T15:42:22;9.10;;;3.30;;
68927;SDS011;56126;54.086;18.796;2024-02-23T15:45:10;8.70;;;3.30;;
68927;SDS011;56126;54.086;18.796;2024-02-23T15:47:59;9.10;;;3.60;;
68927;SDS011;56126;54.086;18.796;2024-02-23T15:50:46;8.70;;;3.40;;
68927;SDS011;56126;54.086;18.796;2024-02-23T15:53:53;8.60;;;3.80;;
68927;SDS011;56126;54.086;18.796;2024-02-23T15:56:41;8.00;;;3.50;;
68927;SDS011;56126;54.086;18.796;2024-02-23T15:59:29;8.80;;;3.50;;
68927;SDS011;56126;54.086;18.796;2024-02-23T16:02:18;9.90;;;3.40;;
68927;SDS011;56126;54.086;18.796;2024-02-23T16:05:06;7.70;;;2.90;;
68927;SDS011;56126;54.086;18.796;2024-02-23T16:07:56;8.70;;;3.00;;
68927;SDS011;56126;54.086;18.796;2024-02-23T16:10:43;8.10;;;2.90;;
68927;SDS011;56126;54.086;18.796;2024-02-23T16:13:30;7.90;;;3.00;;
68927;SDS011;56126;54.086;18.796;2024-02-23T16:16:21;7.20;;;2.80;;
68927;SDS011;56126;54.086;18.796;2024-02-23T22:01:42;11.20;;;5.80;;
68927;SDS011;56126;54.086;18.796;2024-02-23T22:04:32;11.50;;;5.50;;
68927;SDS011;56126;54.086;18.796;2024-02-23T22:07:21;12.70;;;6.20;;